createdAt,value
2023-02-19T00:01:07.923Z,9.60
2023-02-19T00:03:34.872Z,9.58
2023-02-19T00:06:02.750Z,9.53
2023-02-19T00:08:31.403Z,9.57
2023-02-19T00:11:13.535Z,9.56
2023-02-19T00:13:42.184Z,9.58
2023-02-19T00:16:19.506Z,9.55
2023-02-19T00:18:46.216Z,9.38
2023-02-19T00:21:13.646Z,9.56
2023-02-19T00:23:40.286Z,9.52
2023-02-19T00:26:18.093Z,9.53
2023-02-19T00:28:45.637Z,9.54
2023-02-19T00:31:32.521Z,9.52
2023-02-19T00:34:05.013Z,9.57
2023-02-19T00:36:33.250Z,9.58
2023-02-19T00:38:59.600Z,9.50
2023-02-19T00:41:26.089Z,9.52
2023-02-19T00:43:55.269Z,9.51
2023-02-19T00:46:27.886Z,9.56
2023-02-19T00:48:55.146Z,9.52
2023-02-19T00:51:23.882Z,9.43
2023-02-19T00:53:50.517Z,9.47
2023-02-19T00:56:17.334Z,9.45
2023-02-19T00:58:43.734Z,9.35
2023-02-19T01:01:11.092Z,9.48
2023-02-19T01:03:38.507Z,9.48
2023-02-19T01:06:06.081Z,9.45
2023-02-19T01:08:33.399Z,9.47
2023-02-19T01:11:00.758Z,9.44
2023-02-19T01:13:28.306Z,9.43
2023-02-19T01:16:02.340Z,9.44
2023-02-19T01:18:28.721Z,9.41
2023-02-19T01:20:55.081Z,9.41
2023-02-19T01:23:21.481Z,9.40
2023-02-19T01:25:47.829Z,9.46
2023-02-19T01:28:14.199Z,9.46
2023-02-19T01:30:40.769Z,9.38
2023-02-19T01:33:08.903Z,9.35
2023-02-19T01:35:39.157Z,9.36
2023-02-19T01:38:07.378Z,9.29
2023-02-19T01:40:34.208Z,9.31
2023-02-19T01:43:00.585Z,9.22
2023-02-19T01:45:30.949Z,9.33
2023-02-19T01:48:09.130Z,9.34
2023-02-19T01:50:44.013Z,9.32
2023-02-19T01:53:14.451Z,9.33
2023-02-19T01:55:41.102Z,9.33
2023-02-19T01:58:09.106Z,9.31
2023-02-19T02:00:36.436Z,9.38
2023-02-19T02:03:03.961Z,9.37
2023-02-19T02:05:46.292Z,9.38
2023-02-19T02:08:33.918Z,9.33
2023-02-19T02:11:00.804Z,8.83
2023-02-19T02:13:27.332Z,8.41
2023-02-19T02:16:19.748Z,8.17
2023-02-19T02:19:08.727Z,8.05
2023-02-19T02:21:59.001Z,7.74
2023-02-19T02:24:51.583Z,7.75
2023-02-19T02:28:01.823Z,7.55
2023-02-19T02:30:50.372Z,7.51
2023-02-19T02:33:28.844Z,7.66
2023-02-19T02:36:00.939Z,7.64
2023-02-19T02:38:30.998Z,7.65
2023-02-19T02:40:57.777Z,7.45
2023-02-19T02:43:24.459Z,7.39
2023-02-19T02:45:50.944Z,7.46
2023-02-19T02:48:23.751Z,7.34
2023-02-19T02:50:59.614Z,7.25
2023-02-19T02:53:47.899Z,7.28
2023-02-19T02:56:16.585Z,7.17
2023-02-19T02:58:44.353Z,7.11
2023-02-19T03:02:10.919Z,6.90
2023-02-19T03:05:03.265Z,7.04
2023-02-19T03:07:37.089Z,7.04
2023-02-19T03:10:07.777Z,6.96
2023-02-19T03:12:57.532Z,6.72
2023-02-19T03:15:55.820Z,6.71
2023-02-19T03:18:43.491Z,6.77
2023-02-19T03:21:10.311Z,6.99
2023-02-19T03:23:56.477Z,6.95
2023-02-19T03:26:25.408Z,6.79
2023-02-19T03:29:12.052Z,6.91
2023-02-19T03:31:41.812Z,6.75
2023-02-19T03:34:12.655Z,6.75
2023-02-19T03:36:53.859Z,6.62
2023-02-19T03:39:22.808Z,6.67
2023-02-19T03:41:54.965Z,6.78
2023-02-19T03:44:33.082Z,6.67
2023-02-19T03:47:13.561Z,6.75
2023-02-19T03:49:51.618Z,6.71
2023-02-19T03:52:49.751Z,6.72
2023-02-19T03:55:43.460Z,6.53
2023-02-19T03:58:18.169Z,6.76
2023-02-19T04:00:53.262Z,6.77
2023-02-19T04:03:33.581Z,6.58
2023-02-19T04:06:05.460Z,6.55
2023-02-19T04:08:35.840Z,6.55
2023-02-19T04:11:03.780Z,6.36
2023-02-19T04:13:40.761Z,6.49
2023-02-19T04:16:11.637Z,6.43
2023-02-19T04:18:41.001Z,6.53
2023-02-19T04:21:09.045Z,6.55
2023-02-19T04:23:42.997Z,6.21
2023-02-19T04:26:11.787Z,6.28
2023-02-19T04:28:38.893Z,6.32
2023-02-19T04:31:06.377Z,6.33
2023-02-19T04:33:32.753Z,6.29
2023-02-19T04:35:59.101Z,6.18
2023-02-19T04:38:25.516Z,6.37
2023-02-19T04:40:51.949Z,6.33
2023-02-19T04:43:18.899Z,6.08
2023-02-19T04:45:45.314Z,6.10
2023-02-19T04:48:11.769Z,6.10
2023-02-19T04:50:41.233Z,6.26
2023-02-19T04:53:08.260Z,6.25
2023-02-19T04:55:40.704Z,6.19
2023-02-19T04:58:07.082Z,6.22
2023-02-19T05:00:34.067Z,5.98
2023-02-19T05:03:01.012Z,5.97
2023-02-19T05:05:27.711Z,5.99
2023-02-19T05:07:54.314Z,6.19
2023-02-19T05:10:20.691Z,6.08
2023-02-19T05:12:47.040Z,6.01
2023-02-19T05:15:13.432Z,6.11
2023-02-19T05:17:39.824Z,6.06
2023-02-19T05:20:07.078Z,6.11
2023-02-19T05:22:33.445Z,6.05
2023-02-19T05:24:59.800Z,6.14
2023-02-19T05:27:26.219Z,5.85
2023-02-19T05:29:52.673Z,5.98
2023-02-19T05:32:19.008Z,5.92
2023-02-19T05:34:45.352Z,5.89
2023-02-19T05:37:11.744Z,6.00
2023-02-19T05:39:38.101Z,6.12
2023-02-19T05:42:04.516Z,6.08
2023-02-19T05:44:30.894Z,6.04
2023-02-19T05:46:57.257Z,6.14
2023-02-19T05:49:23.625Z,5.92
2023-02-19T05:51:51.029Z,6.06
2023-02-19T05:54:17.389Z,5.97
2023-02-19T05:56:43.814Z,5.93
2023-02-19T05:59:22.228Z,5.86
2023-02-19T06:01:50.260Z,6.06
2023-02-19T06:04:19.051Z,5.91
2023-02-19T06:06:46.444Z,5.82
2023-02-19T06:09:13.307Z,5.91
2023-02-19T06:11:40.078Z,5.83
2023-02-19T06:14:07.151Z,6.09
2023-02-19T06:16:34.388Z,6.05
2023-02-19T06:19:04.035Z,6.04
2023-02-19T06:21:30.397Z,5.93
2023-02-19T06:23:56.838Z,5.90
2023-02-19T06:26:24.684Z,5.88
2023-02-19T06:28:53.161Z,5.83
2023-02-19T06:31:21.246Z,5.90
2023-02-19T06:33:48.118Z,5.80
2023-02-19T06:36:17.191Z,5.82
2023-02-19T06:38:44.093Z,5.78
2023-02-19T06:41:12.020Z,5.91
2023-02-19T06:43:38.770Z,5.78
2023-02-19T06:46:06.673Z,5.89
2023-02-19T06:48:34.187Z,5.80
2023-02-19T06:51:00.809Z,5.79
2023-02-19T06:53:27.494Z,5.86
2023-02-19T06:56:22.311Z,5.84
2023-02-19T06:58:48.673Z,5.72
2023-02-19T07:01:15.040Z,5.72
2023-02-19T07:03:41.477Z,5.96
2023-02-19T07:06:08.231Z,5.91
2023-02-19T07:08:34.632Z,6.00
2023-02-19T07:11:01.004Z,5.94
2023-02-19T07:13:27.756Z,5.76
2023-02-19T07:16:02.101Z,5.94
2023-02-19T07:18:30.086Z,6.03
2023-02-19T07:21:12.363Z,5.96
2023-02-19T07:23:39.558Z,5.80
2023-02-19T07:26:09.943Z,5.90
2023-02-19T07:28:36.366Z,5.87
2023-02-19T07:31:04.291Z,6.02
2023-02-19T07:33:30.855Z,5.76
2023-02-19T07:35:57.354Z,5.67
2023-02-19T07:38:25.027Z,5.67
2023-02-19T07:40:56.540Z,5.72
2023-02-19T07:43:24.341Z,5.62
2023-02-19T07:45:50.991Z,5.81
2023-02-19T07:48:18.144Z,5.83
2023-02-19T07:50:54.628Z,5.83
2023-02-19T07:53:22.713Z,5.72
2023-02-19T07:55:49.704Z,5.81
2023-02-19T07:58:16.583Z,5.87
2023-02-19T08:00:43.242Z,5.94
2023-02-19T08:03:10.214Z,5.84
2023-02-19T08:05:38.840Z,5.87
2023-02-19T08:08:10.359Z,6.27
2023-02-19T08:10:55.639Z,6.47
2023-02-19T08:13:22.881Z,6.26
2023-02-19T08:15:50.715Z,6.55
2023-02-19T08:18:18.925Z,6.81
2023-02-19T08:20:45.640Z,7.45
2023-02-19T08:23:12.380Z,7.92
2023-02-19T08:25:40.005Z,8.67
2023-02-19T08:28:08.294Z,8.96
2023-02-19T08:30:35.909Z,9.79
2023-02-19T08:33:02.568Z,10.06
2023-02-19T08:35:29.185Z,9.74
2023-02-19T08:37:57.330Z,10.45
2023-02-19T08:40:24.955Z,10.32
2023-02-19T08:42:51.475Z,10.82
2023-02-19T08:45:18.838Z,10.66
2023-02-19T08:47:45.780Z,10.47
2023-02-19T08:50:12.812Z,11.54
2023-02-19T08:52:39.169Z,11.03
2023-02-19T08:55:06.008Z,10.60
2023-02-19T08:57:35.924Z,10.46
2023-02-19T09:00:02.276Z,11.06
2023-02-19T09:02:29.156Z,10.80
2023-02-19T09:04:55.497Z,11.54
2023-02-19T09:07:22.915Z,11.60
2023-02-19T09:09:49.330Z,11.73
2023-02-19T09:12:15.704Z,11.02
2023-02-19T09:14:42.158Z,11.42
2023-02-19T09:17:08.946Z,12.11
2023-02-19T09:19:35.871Z,11.17
2023-02-19T09:22:03.474Z,12.32
2023-02-19T09:24:30.670Z,12.77
2023-02-19T09:26:57.068Z,12.69
2023-02-19T09:29:28.069Z,12.35
2023-02-19T09:31:59.184Z,12.64
2023-02-19T09:34:27.242Z,11.93
2023-02-19T09:36:54.701Z,11.84
2023-02-19T09:39:21.346Z,11.64
2023-02-19T09:41:52.275Z,12.07
2023-02-19T09:44:29.489Z,11.72
2023-02-19T09:46:56.328Z,11.89
2023-02-19T09:49:33.714Z,11.30
2023-02-19T09:52:07.704Z,11.45
2023-02-19T09:54:36.388Z,11.72
2023-02-19T09:57:04.198Z,10.77
2023-02-19T09:59:42.195Z,9.98
2023-02-19T10:02:18.241Z,9.87
2023-02-19T10:04:46.364Z,9.89
2023-02-19T10:07:22.830Z,9.70
2023-02-19T10:09:59.398Z,9.09
2023-02-19T10:12:28.864Z,9.23
2023-02-19T10:15:09.102Z,9.54
2023-02-19T10:17:36.812Z,10.66
2023-02-19T10:20:04.349Z,11.51
2023-02-19T10:22:36.359Z,12.32
2023-02-19T10:25:02.904Z,11.43
2023-02-19T10:27:31.117Z,10.51
2023-02-19T10:29:59.825Z,11.24
2023-02-19T10:32:27.462Z,11.64
2023-02-19T10:35:10.942Z,11.24
2023-02-19T10:37:44.225Z,12.81
2023-02-19T10:40:20.843Z,11.83
2023-02-19T10:42:49.873Z,11.55
2023-02-19T10:45:41.380Z,10.54
2023-02-19T10:48:24.694Z,10.80
2023-02-19T10:50:57.045Z,9.82
2023-02-19T10:53:39.670Z,9.72
2023-02-19T10:56:12.555Z,9.60
2023-02-19T10:58:40.185Z,9.65
2023-02-19T11:01:32.896Z,9.43
2023-02-19T11:04:18.147Z,8.97
2023-02-19T11:06:45.876Z,8.80
2023-02-19T11:09:30.846Z,9.15
2023-02-19T11:11:57.956Z,10.07
2023-02-19T11:14:26.459Z,11.36
2023-02-19T11:16:58.590Z,11.50
2023-02-19T11:19:37.983Z,10.84
2023-02-19T11:22:32.269Z,10.78
2023-02-19T11:25:25.658Z,10.43
2023-02-19T11:28:07.885Z,10.17
2023-02-19T11:30:41.102Z,9.42
2023-02-19T11:33:22.196Z,9.53
2023-02-19T11:35:51.133Z,9.24
2023-02-19T11:38:19.541Z,9.57
2023-02-19T11:40:59.872Z,10.45
2023-02-19T11:43:52.660Z,10.44
2023-02-19T11:46:49.934Z,9.98
2023-02-19T11:49:51.421Z,9.66
2023-02-19T11:52:54.118Z,10.09
2023-02-19T11:55:44.236Z,10.57
2023-02-19T11:58:29.994Z,10.77
2023-02-19T12:01:18.918Z,11.30
2023-02-19T12:04:10.284Z,11.98
2023-02-19T12:07:10.280Z,11.79
2023-02-19T12:10:14.241Z,11.52
2023-02-19T12:12:59.353Z,11.02
2023-02-19T12:15:48.653Z,10.96
2023-02-19T12:18:50.147Z,10.66
2023-02-19T12:21:38.893Z,10.52
2023-02-19T12:24:25.397Z,10.44
2023-02-19T12:27:10.891Z,10.82
2023-02-19T12:29:45.176Z,10.10
2023-02-19T12:32:25.682Z,10.15
2023-02-19T12:35:16.633Z,10.38
2023-02-19T12:38:13.694Z,10.12
2023-02-19T12:40:56.641Z,9.83
2023-02-19T12:43:24.192Z,9.63
2023-02-19T12:46:01.323Z,9.77
2023-02-19T12:48:39.807Z,10.09
2023-02-19T12:51:21.196Z,10.08
2023-02-19T12:53:58.951Z,9.88
2023-02-19T12:56:30.832Z,9.73
2023-02-19T12:59:05.449Z,9.84
2023-02-19T13:01:41.568Z,9.83
2023-02-19T13:04:23.275Z,9.96
2023-02-19T13:06:56.403Z,10.04
2023-02-19T13:09:36.442Z,9.83
2023-02-19T13:12:09.679Z,9.91
2023-02-19T13:14:44.608Z,9.61
2023-02-19T13:17:34.287Z,9.59
2023-02-19T13:20:20.218Z,9.77
2023-02-19T13:23:11.139Z,9.97
2023-02-19T13:26:10.716Z,9.47
2023-02-19T13:28:53.421Z,9.23
2023-02-19T13:31:31.989Z,9.47
2023-02-19T13:34:07.225Z,9.46
2023-02-19T13:36:36.124Z,9.48
2023-02-19T13:39:06.434Z,9.50
2023-02-19T13:41:42.523Z,9.43
2023-02-19T13:44:20.942Z,9.48
2023-02-19T13:46:49.433Z,9.59
2023-02-19T13:49:27.699Z,9.60
2023-02-19T13:51:59.067Z,9.47
2023-02-19T13:54:25.865Z,9.80
2023-02-19T13:57:20.087Z,9.67
2023-02-19T13:59:48.129Z,9.72
2023-02-19T14:02:21.654Z,9.82
2023-02-19T14:05:01.847Z,9.78
2023-02-19T14:07:28.164Z,10.01
2023-02-19T14:09:55.014Z,9.82
2023-02-19T14:12:22.814Z,9.55
2023-02-19T14:14:53.668Z,9.33
2023-02-19T14:17:25.484Z,9.58
2023-02-19T14:20:04.999Z,9.71
2023-02-19T14:22:47.570Z,9.44
2023-02-19T14:25:28.968Z,9.51
2023-02-19T14:28:10.512Z,9.40
2023-02-19T14:30:46.018Z,9.32
2023-02-19T14:33:16.433Z,9.49
2023-02-19T14:35:46.230Z,9.53
2023-02-19T14:38:30.409Z,9.52
2023-02-19T14:40:57.590Z,9.45
2023-02-19T14:43:26.304Z,9.49
2023-02-19T14:45:57.075Z,9.52
2023-02-19T14:48:45.943Z,9.65
2023-02-19T14:51:21.111Z,9.63
2023-02-19T14:53:48.751Z,9.30
2023-02-19T14:56:25.647Z,9.36
2023-02-19T14:59:20.660Z,9.41
2023-02-19T15:01:53.806Z,8.92
2023-02-19T15:04:23.301Z,9.03
2023-02-19T15:06:52.950Z,9.07
2023-02-19T15:09:21.716Z,9.08
2023-02-19T15:11:48.621Z,9.04
2023-02-19T15:14:20.990Z,8.87
2023-02-19T15:16:47.923Z,8.89
2023-02-19T15:19:16.414Z,9.01
2023-02-19T15:21:47.467Z,8.78
2023-02-19T15:24:16.731Z,8.98
2023-02-19T15:26:46.956Z,8.99
2023-02-19T15:29:16.013Z,8.94
2023-02-19T15:31:51.695Z,8.90
2023-02-19T15:34:21.800Z,8.80
2023-02-19T15:36:51.572Z,8.73
2023-02-19T15:39:24.208Z,8.72
2023-02-19T15:41:58.494Z,8.86
2023-02-19T15:44:31.687Z,8.95
2023-02-19T15:47:04.133Z,8.98
2023-02-19T15:49:46.391Z,8.96
2023-02-19T15:52:30.507Z,8.81
2023-02-19T15:54:59.929Z,8.91
2023-02-19T15:57:32.652Z,8.65
2023-02-19T16:00:07.208Z,8.73
2023-02-19T16:02:34.273Z,8.66
2023-02-19T16:05:02.195Z,8.56
2023-02-19T16:07:34.764Z,8.38
2023-02-19T16:10:20.238Z,8.38
2023-02-19T16:13:00.591Z,8.20
2023-02-19T16:15:29.122Z,8.21
2023-02-19T16:17:56.782Z,8.25
2023-02-19T16:20:28.967Z,8.12
2023-02-19T16:23:12.728Z,8.09
2023-02-19T16:25:43.962Z,8.08
2023-02-19T16:28:20.930Z,8.00
2023-02-19T16:31:15.569Z,7.99
2023-02-19T16:33:44.010Z,7.85
2023-02-19T16:36:41.451Z,7.79
2023-02-19T16:39:07.815Z,7.62
2023-02-19T16:41:57.460Z,7.65
2023-02-19T16:44:33.383Z,7.77
2023-02-19T16:47:14.167Z,7.78
2023-02-19T16:49:42.425Z,7.58
2023-02-19T16:52:14.182Z,7.70
2023-02-19T16:54:40.617Z,7.53
2023-02-19T16:57:06.961Z,7.49
2023-02-19T16:59:33.326Z,7.50
2023-02-19T17:01:59.870Z,7.32
2023-02-19T17:04:26.254Z,7.33
2023-02-19T17:06:52.633Z,7.42
2023-02-19T17:09:19.026Z,7.48
2023-02-19T17:11:45.426Z,7.39
2023-02-19T17:14:11.797Z,7.32
2023-02-19T17:16:41.102Z,7.37
2023-02-19T17:19:17.047Z,7.29
2023-02-19T17:21:45.152Z,7.26
2023-02-19T17:24:11.583Z,7.26
2023-02-19T17:26:38.107Z,7.24
2023-02-19T17:29:06.777Z,7.20
2023-02-19T17:31:34.057Z,7.23
2023-02-19T17:34:00.712Z,7.20
2023-02-19T17:36:30.796Z,7.09
2023-02-19T17:39:01.658Z,7.15
2023-02-19T17:41:28.722Z,6.95
2023-02-19T17:43:55.570Z,6.93
2023-02-19T17:46:24.801Z,6.79
2023-02-19T17:48:51.567Z,6.65
2023-02-19T17:51:18.046Z,6.64
2023-02-19T17:53:46.379Z,6.51
2023-02-19T17:56:18.975Z,6.45
2023-02-19T17:58:45.653Z,6.41
2023-02-19T18:01:12.312Z,6.31
2023-02-19T18:03:38.915Z,6.28
2023-02-19T18:06:05.550Z,6.25
2023-02-19T18:08:31.934Z,6.18
2023-02-19T18:10:58.316Z,6.11
2023-02-19T18:13:24.746Z,5.95
2023-02-19T18:15:51.096Z,6.00
2023-02-19T18:18:17.467Z,5.95
2023-02-19T18:20:44.082Z,5.73
2023-02-19T18:23:10.471Z,5.61
2023-02-19T18:25:36.836Z,5.56
2023-02-19T18:28:03.342Z,5.61
2023-02-19T18:30:30.131Z,5.61
2023-02-19T18:32:57.773Z,5.51
2023-02-19T18:35:24.133Z,5.52
2023-02-19T18:37:52.576Z,5.55
2023-02-19T18:40:25.282Z,5.57
2023-02-19T18:42:51.919Z,5.57
2023-02-19T18:45:18.507Z,5.58
2023-02-19T18:47:49.421Z,5.70
2023-02-19T18:50:17.734Z,5.67
2023-02-19T18:52:45.331Z,5.70
2023-02-19T18:55:12.025Z,5.71
2023-02-19T18:57:38.485Z,5.89
2023-02-19T19:00:07.139Z,5.88
2023-02-19T19:02:47.046Z,6.04
2023-02-19T19:05:18.437Z,6.10
2023-02-19T19:07:44.836Z,6.04
2023-02-19T19:10:11.378Z,5.79
2023-02-19T19:12:37.764Z,5.96
2023-02-19T19:15:04.479Z,6.12
2023-02-19T19:17:30.913Z,6.13
2023-02-19T19:19:57.265Z,6.19
2023-02-19T19:22:25.079Z,6.10
2023-02-19T19:24:51.527Z,6.13
2023-02-19T19:27:20.041Z,6.14
2023-02-19T19:29:47.313Z,6.10
2023-02-19T19:32:14.175Z,6.09
2023-02-19T19:34:42.704Z,6.08
2023-02-19T19:37:09.567Z,6.12
2023-02-19T19:39:36.753Z,6.07
2023-02-19T19:42:03.597Z,6.17
2023-02-19T19:44:30.096Z,6.10
2023-02-19T19:46:56.516Z,6.06
2023-02-19T19:49:23.443Z,6.05
2023-02-19T19:51:49.865Z,5.97
2023-02-19T19:54:16.369Z,6.00
2023-02-19T19:56:45.422Z,6.04
2023-02-19T19:59:16.620Z,5.98
2023-02-19T20:01:51.285Z,6.05
2023-02-19T20:04:18.950Z,6.08
2023-02-19T20:06:45.411Z,6.08
2023-02-19T20:09:11.910Z,6.17
2023-02-19T20:11:49.728Z,5.94
2023-02-19T20:14:17.326Z,6.10
2023-02-19T20:16:44.831Z,6.15
2023-02-19T20:19:11.378Z,6.11
2023-02-19T20:21:37.799Z,6.10
2023-02-19T20:24:04.455Z,6.19
2023-02-19T20:26:31.755Z,5.99
2023-02-19T20:28:58.843Z,6.11
2023-02-19T20:31:25.627Z,6.18
2023-02-19T20:33:52.143Z,6.20
2023-02-19T20:36:20.043Z,6.14
2023-02-19T20:38:48.541Z,6.07
2023-02-19T20:41:14.969Z,6.10
2023-02-19T20:43:41.316Z,6.15
2023-02-19T20:46:07.823Z,6.14
2023-02-19T20:48:34.259Z,6.20
2023-02-19T20:51:00.704Z,6.16
2023-02-19T20:53:27.692Z,6.18
2023-02-19T20:55:55.259Z,6.14
2023-02-19T20:58:22.207Z,5.98
2023-02-19T21:00:48.636Z,6.21
2023-02-19T21:03:15.439Z,6.21
2023-02-19T21:05:42.899Z,6.18
2023-02-19T21:08:11.580Z,6.19
2023-02-19T21:10:38.160Z,6.19
2023-02-19T21:13:04.534Z,6.13
2023-02-19T21:15:30.918Z,5.96
2023-02-19T21:17:57.380Z,6.11
2023-02-19T21:20:23.730Z,5.82
2023-02-19T21:22:50.098Z,6.09
2023-02-19T21:25:16.544Z,6.10
2023-02-19T21:27:42.876Z,5.99
2023-02-19T21:30:09.484Z,6.18
2023-02-19T21:32:35.911Z,6.14
2023-02-19T21:35:02.401Z,6.09
2023-02-19T21:37:28.814Z,6.03
2023-02-19T21:39:55.580Z,6.01
2023-02-19T21:42:21.972Z,6.06
2023-02-19T21:44:48.372Z,5.90
2023-02-19T21:47:14.776Z,5.96
2023-02-19T21:49:42.276Z,5.92
2023-02-19T21:52:09.544Z,5.95
2023-02-19T21:54:35.917Z,5.89
2023-02-19T21:57:03.414Z,5.96
2023-02-19T21:59:29.786Z,5.94
2023-02-19T22:01:57.086Z,6.04
2023-02-19T22:04:24.568Z,5.92
2023-02-19T22:06:54.955Z,6.01
2023-02-19T22:09:21.384Z,6.05
2023-02-19T22:11:47.745Z,6.15
2023-02-19T22:14:14.291Z,6.11
2023-02-19T22:16:40.683Z,6.16
2023-02-19T22:19:07.071Z,6.05
2023-02-19T22:21:33.524Z,6.06
2023-02-19T22:24:01.640Z,6.19
2023-02-19T22:26:33.863Z,6.17
2023-02-19T22:29:02.666Z,6.20
2023-02-19T22:31:29.138Z,6.27
2023-02-19T22:33:57.532Z,6.15
2023-02-19T22:36:26.744Z,6.28
2023-02-19T22:38:53.985Z,6.20
2023-02-19T22:41:21.039Z,6.21
2023-02-19T22:43:48.006Z,6.27
2023-02-19T22:46:18.268Z,6.22
2023-02-19T22:48:44.782Z,6.20
2023-02-19T22:51:13.164Z,6.18
2023-02-19T22:53:47.675Z,6.28
2023-02-19T22:56:15.296Z,6.28
2023-02-19T22:58:42.161Z,6.27
2023-02-19T23:01:10.108Z,6.23
2023-02-19T23:03:54.697Z,6.25
2023-02-19T23:06:24.660Z,6.31
2023-02-19T23:08:52.193Z,6.32
2023-02-19T23:11:30.471Z,6.34
2023-02-19T23:13:57.734Z,6.19
2023-02-19T23:16:24.227Z,6.34
2023-02-19T23:18:51.269Z,6.15
2023-02-19T23:21:21.696Z,6.32
2023-02-19T23:23:48.244Z,6.39
2023-02-19T23:26:16.420Z,6.33
2023-02-19T23:28:43.260Z,6.14
2023-02-19T23:31:10.333Z,6.33
2023-02-19T23:33:36.949Z,6.27
2023-02-19T23:36:04.365Z,6.26
2023-02-19T23:38:30.797Z,6.30
2023-02-19T23:40:57.205Z,6.33
2023-02-19T23:43:23.573Z,6.21
2023-02-19T23:45:50.182Z,6.29
2023-02-19T23:48:16.716Z,6.15
2023-02-19T23:50:43.096Z,6.22
2023-02-19T23:53:09.604Z,6.11
2023-02-19T23:55:35.968Z,6.22
2023-02-19T23:58:02.352Z,6.20
